Terminal Aerodrome Forecast
Issued by NWS Wilmington, OH

Current Version | Previous Version | Graphics & Text | Print | Product List | Glossary On
Versions: 1 2 3 4 5 6 7 8 9 10 11 12 13 14 15 16 17 18 19 20 21 22 23 24
807
FTUS41 KILN 132053 AAA
TAFCVG
TAF AMD
KCVG 132053Z 1321/1424 08005KT P6SM SCT060
     FM140000 07003KT P6SM FEW250
     FM140900 09003KT P6SM BKN130
     FM141500 16004KT P6SM BKN060
     FM141800 20005KT P6SM SCT050=

USA.gov is the U.S. government's official web portal to all federal, state and local government web resources and services.